Hebei Shijiazhuang — VRIS2 — position and weather

sailwx.info

Track history (hours):
 
Tides and Currents Weather Stations Pressure Air Temp Water Temp Dewpoint Dewpoint Depression Visibility Wind Speed Wind Dir Waves Ship Positions

Hebei Shijiazhuang

Last reported at 2017-May-19 04:55 UTC. Time now 2017-Jun-27 12:07 UTC.
Position S 04°12' E 128°15'.
Warning: this ship's position is 39 days out of date.

Length 235 m.

Type: Cargo ship. MMSI: 477899000.

Date/timePositionNaut miles runAvg speedWind from/ knotsBaromVisibWave heightAir tempDewpointWater temp
2017-May-19 04:55S 04°12' E 128°15'612.9
2017-May-19 04:29S 04°09' E 128°10'612.6
2017-May-19 04:00S 04°06' E 128°05'612.8
2017-May-19 03:30S 04°02' E 127°60'713.1
2017-May-19 03:00S 03°59' E 127°54'713.6
2017-May-19 02:31S 03°55' E 127°48'713.4
2017-May-19 02:00S 03°52' E 127°42'713.8
2017-May-19 01:30S 03°48' E 127°37'713.3
2017-May-19 01:00S 03°43' E 127°32'713.6
2017-May-19 00:31S 03°37' E 127°30'713.9
2017-May-19 00:00S 03°30' E 127°27'714.1
2017-May-18 23:30S 03°24' E 127°25'713.9
2017-May-18 23:00S 03°17' E 127°22'  
Track history (hours):
 
Tides and Currents Weather Stations Pressure Air Temp Water Temp Dewpoint Dewpoint Depression Visibility Wind Speed Wind Dir Waves Ship Positions

Hebei Shijiazhuang

Last reported at 2017-May-19 04:55 UTC. Time now 2017-Jun-27 12:07 UTC.
Position S 04°12' E 128°15'.
Warning: this ship's position is 39 days out of date.

Length 235 m.

Type: Cargo ship. MMSI: 477899000.

Date/timePositionNaut miles runAvg speedWind from/ knotsBaromVisibWave heightAir tempDewpointWater temp
2017-May-19 04:55S 04°12' E 128°15'612.9
2017-May-19 04:29S 04°09' E 128°10'612.6
2017-May-19 04:00S 04°06' E 128°05'612.8
2017-May-19 03:30S 04°02' E 127°60'713.1
2017-May-19 03:00S 03°59' E 127°54'713.6
2017-May-19 02:31S 03°55' E 127°48'713.4
2017-May-19 02:00S 03°52' E 127°42'713.8
2017-May-19 01:30S 03°48' E 127°37'713.3
2017-May-19 01:00S 03°43' E 127°32'713.6
2017-May-19 00:31S 03°37' E 127°30'713.9
2017-May-19 00:00S 03°30' E 127°27'714.1
2017-May-18 23:30S 03°24' E 127°25'713.9
2017-May-18 23:00S 03°17' E 127°22'  

Dump ship's entire track history